Time;durP1;ratioP1;P1;durP2;ratioP2;P2;SDS_P1;SDS_P2;PMS_P1;PMS_P2;Temp;Humidity;BMP_temperature;BMP_pressure;BME280_temperature;BME280_humidity;BME280_pressure;Samples;Min_cycle;Max_cycle;Signal;HPM_P1;HPM_P2
2023/08/15 00:02:13;;;;;;;7.20;5.32;;;21.60;99.90;;;21.58;100.00;97172.72;5054115;28;20020;-36
2023/08/15 00:04:38;;;;;;;7.35;5.40;;;21.50;99.90;;;21.54;100.00;97167.59;5058016;28;20039;-36
2023/08/15 00:07:04;;;;;;;6.63;5.57;;;21.50;99.90;;;21.55;100.00;97157.72;5061201;28;20028;-36
2023/08/15 00:09:31;;;;;;;10.70;5.30;;;21.50;99.90;;;21.57;100.00;97162.97;5062235;28;20025;-36
2023/08/15 00:11:58;;;;;;;6.18;5.30;;;21.50;99.90;;;21.56;100.00;97159.44;5055550;28;20508;-36
2023/08/15 00:14:23;;;;;;;7.03;5.25;;;21.50;99.90;;;21.56;100.00;97158.59;5058641;28;20052;-36
2023/08/15 00:16:49;;;;;;;7.82;5.43;;;21.50;99.90;;;21.56;100.00;97159.44;5054364;28;20037;-36
2023/08/15 00:19:15;;;;;;;5.90;5.05;;;21.50;99.90;;;21.49;100.00;97143.00;5057114;28;20554;-36
2023/08/15 00:21:40;;;;;;;6.13;5.53;;;21.50;99.90;;;21.60;100.00;97150.13;5052680;28;20028;-36
2023/08/15 00:24:06;;;;;;;5.88;5.22;;;21.60;99.90;;;21.64;100.00;97151.59;5059353;28;20488;-36
2023/08/15 00:26:32;;;;;;;7.78;5.45;;;21.60;99.90;;;21.65;100.00;97157.78;5055948;28;20132;-36
2023/08/15 00:29:00;;;;;;;6.40;5.22;;;21.70;99.90;;;21.71;100.00;97155.44;5053225;28;20028;-36
2023/08/15 00:31:26;;;;;;;12.27;5.53;;;21.70;99.90;;;21.77;100.00;97148.69;5057718;28;20032;-36
2023/08/15 00:33:52;;;;;;;7.47;5.20;;;21.70;99.90;;;21.79;100.00;97146.72;5054609;28;20083;-36
2023/08/15 00:36:17;;;;;;;5.97;5.13;;;21.80;99.90;;;21.81;100.00;97151.97;5054698;28;20028;-36
2023/08/15 00:38:43;;;;;;;5.65;5.07;;;21.80;99.90;;;21.79;100.00;97152.09;5056525;28;20053;-36
2023/08/15 00:41:09;;;;;;;6.32;5.53;;;21.70;99.90;;;21.76;100.00;97141.63;5058525;28;20272;-36
2023/08/15 00:43:35;;;;;;;7.22;5.30;;;21.70;99.90;;;21.72;100.00;97143.72;5053486;28;20043;-36
2023/08/15 00:46:03;;;;;;;5.80;5.22;;;21.70;99.90;;;21.68;100.00;97144.97;5057028;28;20488;-36
2023/08/15 00:48:31;;;;;;;6.85;5.57;;;21.70;99.90;;;21.65;100.00;97147.06;5056081;28;20096;-36
2023/08/15 00:51:00;;;;;;;5.95;5.05;;;21.60;99.90;;;21.61;100.00;97140.28;5057429;28;20029;-36
2023/08/15 00:53:29;;;;;;;6.70;4.97;;;21.60;99.90;;;21.57;100.00;97144.19;5057818;28;20079;-36
2023/08/15 00:55:55;;;;;;;6.93;5.32;;;21.50;99.90;;;21.48;100.00;97144.00;5055402;28;20476;-36
2023/08/15 00:58:22;;;;;;;6.85;5.45;;;21.40;99.90;;;21.41;100.00;97142.78;5058252;28;20042;-36
2023/08/15 01:00:47;;;;;;;7.05;5.40;;;21.40;99.90;;;21.34;100.00;97139.78;5056075;28;20081;-36
2023/08/15 01:03:13;;;;;;;5.97;5.13;;;21.30;99.90;;;21.25;100.00;97137.03;5058949;28;20036;-36
2023/08/15 01:05:41;;;;;;;7.65;5.78;;;21.30;99.90;;;21.25;100.00;97145.06;5054213;28;20028;-36
2023/08/15 01:08:07;;;;;;;7.78;5.78;;;21.20;99.90;;;21.20;100.00;97148.13;5049410;28;20488;-37
2023/08/15 01:10:33;;;;;;;6.38;5.63;;;21.20;99.90;;;21.19;100.00;97132.16;5060623;28;20035;-36
2023/08/15 01:13:29;;;;;;;6.93;6.03;;;21.10;99.90;;;21.14;100.00;97130.72;5049978;28;20032;-36
2023/08/15 01:15:55;;;;;;;6.60;5.80;;;21.10;99.90;;;21.10;100.00;97126.63;5068591;28;20020;-36
2023/08/15 01:18:34;;;;;;;7.32;5.22;;;21.10;99.90;;;21.06;100.00;97124.31;5058446;28;20029;-36
2023/08/15 01:21:01;;;;;;;6.35;5.70;;;21.00;99.90;;;21.02;100.00;97123.72;5071146;28;20028;-36
2023/08/15 01:23:43;;;;;;;7.63;5.78;;;21.00;99.90;;;20.98;100.00;97135.69;5053760;28;20452;-36
2023/08/15 01:26:09;;;;;;;7.18;5.63;;;21.00;99.90;;;20.87;100.00;97115.13;5057626;28;20169;-37
2023/08/15 01:28:35;;;;;;;6.13;5.53;;;20.90;99.90;;;20.93;100.00;97135.22;5057141;28;20064;-36
2023/08/15 01:31:25;;;;;;;6.75;5.28;;;20.90;99.90;;;20.90;100.00;97130.94;5055753;28;20508;-36
2023/08/15 01:34:22;;;;;;;6.90;5.35;;;20.90;99.90;;;20.84;100.00;97128.78;5052067;28;20033;-36
2023/08/15 01:37:04;;;;;;;6.07;5.30;;;20.90;99.90;;;20.81;100.00;97115.63;5053272;28;20468;-36
2023/08/15 01:39:31;;;;;;;7.20;5.45;;;20.80;99.90;;;20.68;100.00;97099.72;5055027;28;20039;-36
2023/08/15 01:42:00;;;;;;;7.20;5.38;;;20.80;99.90;;;20.74;100.00;97117.13;5054614;28;20043;-36
2023/08/15 01:44:27;;;;;;;7.65;5.65;;;20.70;99.90;;;20.71;100.00;97114.69;5056142;28;20104;-36
2023/08/15 01:46:53;;;;;;;8.25;5.63;;;20.70;99.90;;;20.63;100.00;97109.97;5068778;28;20020;-36
2023/08/15 01:49:19;;;;;;;6.47;5.63;;;20.70;99.90;;;20.64;100.00;97124.19;5059786;28;20025;-36
2023/08/15 01:51:45;;;;;;;9.38;5.70;;;20.70;99.90;;;20.60;100.00;97127.13;5056819;28;20028;-36
2023/08/15 01:54:10;;;;;;;6.43;5.63;;;20.60;99.90;;;20.59;100.00;97124.56;5058719;28;20089;-36
2023/08/15 01:56:36;;;;;;;7.45;5.93;;;20.60;99.90;;;20.57;100.00;97123.84;5052504;28;20025;-36
2023/08/15 01:59:02;;;;;;;6.80;5.85;;;20.60;99.90;;;20.54;100.00;97127.59;5057952;28;20154;-36
2023/08/15 02:01:27;;;;;;;7.32;6.03;;;20.60;99.90;;;20.53;100.00;97127.72;5055754;28;20033;-36
2023/08/15 02:03:53;;;;;;;7.57;6.13;;;20.50;99.90;;;20.52;100.00;97123.38;5055984;28;20327;-36
2023/08/15 02:06:19;;;;;;;6.88;5.70;;;20.50;99.90;;;20.51;100.00;97127.00;5057077;28;20016;-36
2023/08/15 02:08:44;;;;;;;7.88;6.07;;;20.50;99.90;;;20.48;100.00;97114.72;5053379;28;20087;-36
2023/08/15 02:11:10;;;;;;;8.80;6.10;;;20.50;99.90;;;20.46;100.00;97116.69;5054243;28;20362;-36
2023/08/15 02:13:36;;;;;;;6.88;5.95;;;20.50;99.90;;;20.46;100.00;97123.84;5055680;28;20108;-36
2023/08/15 02:16:02;;;;;;;7.57;6.15;;;20.40;99.90;;;20.44;100.00;97123.13;5044673;28;20196;-36
2023/08/15 02:18:29;;;;;;;6.78;5.80;;;20.40;99.90;;;20.37;100.00;97114.75;5056643;28;20033;-36
2023/08/15 02:20:55;;;;;;;7.97;6.00;;;20.50;99.90;;;20.44;100.00;97123.13;5050510;28;20036;-36
2023/08/15 02:23:20;;;;;;;6.80;5.78;;;20.40;99.90;;;20.41;100.00;97119.72;5053846;28;20032;-36
2023/08/15 02:25:46;;;;;;;7.53;5.40;;;20.40;99.90;;;20.40;100.00;97110.00;5056497;28;20021;-36
2023/08/15 02:28:12;;;;;;;7.22;5.82;;;20.40;99.90;;;20.39;100.00;97115.50;5056501;28;20024;-36
2023/08/15 02:30:38;;;;;;;6.07;5.35;;;20.40;99.90;;;20.39;100.00;97116.31;5055692;28;20073;-36
2023/08/15 02:33:05;;;;;;;7.35;5.70;;;20.40;99.90;;;20.43;100.00;97118.75;5057470;28;20074;-36
2023/08/15 02:35:31;;;;;;;6.70;5.80;;;20.40;99.90;;;20.45;100.00;97114.13;5057822;28;20029;-36
2023/08/15 02:37:56;;;;;;;6.72;5.63;;;20.40;99.90;;;20.47;100.00;97107.66;5059235;28;20028;-36
2023/08/15 02:40:25;;;;;;;7.15;5.70;;;20.50;99.90;;;20.48;100.00;97112.06;5062713;28;20353;-36
2023/08/15 02:42:51;;;;;;;6.13;5.53;;;20.50;99.90;;;20.49;100.00;97110.22;5055912;28;20037;-36
2023/08/15 02:45:17;;;;;;;6.15;5.55;;;20.50;99.90;;;20.49;100.00;97116.41;5060560;28;20034;-36
2023/08/15 02:47:43;;;;;;;6.22;5.45;;;20.50;99.90;;;20.52;100.00;97110.81;5059568;28;20043;-36
2023/08/15 02:50:09;;;;;;;6.15;5.55;;;20.60;99.90;;;20.54;100.00;97108.84;5059582;28;20317;-36
2023/08/15 02:52:35;;;;;;;6.20;5.55;;;20.60;99.90;;;20.57;100.00;97110.44;5057740;28;20075;-36
2023/08/15 02:55:01;;;;;;;6.88;5.60;;;20.60;99.90;;;20.59;100.00;97111.16;5059044;28;20021;-36
2023/08/15 02:57:26;;;;;;;6.28;5.55;;;20.60;99.90;;;20.61;100.00;97111.91;5059803;28;20075;-36
2023/08/15 02:59:52;;;;;;;5.50;5.00;;;20.70;99.90;;;20.62;100.00;97113.63;5057318;28;20388;-36
2023/08/15 03:02:18;;;;;;;6.63;5.50;;;20.70;99.90;;;20.63;100.00;97107.28;5058779;28;20082;-36
2023/08/15 03:04:44;;;;;;;5.90;5.22;;;20.70;99.90;;;20.62;100.00;97105.59;5060622;28;20503;-36
2023/08/15 03:07:09;;;;;;;8.05;5.55;;;20.60;99.90;;;20.62;100.00;97097.56;5057566;28;20036;-36
2023/08/15 03:09:35;;;;;;;8.32;5.45;;;20.70;99.90;;;20.59;100.00;97093.25;5060017;28;20115;-36
2023/08/15 03:12:01;;;;;;;6.68;5.63;;;20.60;99.90;;;20.50;100.00;97101.22;5058152;28;20040;-36
2023/08/15 03:14:29;;;;;;;5.80;5.20;;;20.60;99.90;;;20.58;100.00;97115.69;5059586;28;20048;-36
2023/08/15 03:16:55;;;;;;;7.43;5.35;;;20.70;99.90;;;20.56;100.00;97111.41;5052270;28;20032;-36
2023/08/15 03:19:21;;;;;;;8.95;5.97;;;20.60;99.90;;;20.49;100.00;97108.38;5059358;28;20404;-36
2023/08/15 03:21:47;;;;;;;5.80;5.20;;;20.60;99.90;;;20.49;100.00;97116.41;5055007;28;20051;-36
2023/08/15 03:24:13;;;;;;;6.60;5.20;;;20.50;99.90;;;20.30;100.00;97098.34;5058162;28;20036;-36
2023/08/15 03:26:38;;;;;;;5.65;4.80;;;20.50;99.90;;;20.39;100.00;97127.03;5059916;28;20722;-36
2023/08/15 03:29:05;;;;;;;6.68;5.60;;;20.40;99.90;;;20.34;100.00;97123.88;5060282;28;20171;-36
2023/08/15 03:31:31;;;;;;;6.22;5.60;;;20.40;99.90;;;20.29;100.00;97123.41;5059511;28;20032;-36
2023/08/15 03:33:57;;;;;;;6.18;5.35;;;20.30;99.90;;;20.12;100.00;97107.88;5056501;28;20043;-36
2023/08/15 03:36:22;;;;;;;8.30;5.65;;;20.30;99.90;;;20.06;100.00;97102.97;5057180;28;20052;-35
2023/08/15 03:38:48;;;;;;;6.35;5.22;;;20.20;99.90;;;20.17;100.00;97133.28;5059017;28;20040;-36
2023/08/15 03:41:14;;;;;;;6.90;5.68;;;20.20;99.90;;;20.12;100.00;97140.00;5057737;28;20108;-36
2023/08/15 03:43:39;;;;;;;6.18;5.30;;;20.10;99.90;;;20.07;100.00;97140.34;5061450;28;20032;-35
2023/08/15 03:46:06;;;;;;;8.93;5.43;;;20.10;99.90;;;20.01;100.00;97136.34;5054639;28;20024;-36
2023/08/15 03:48:32;;;;;;;6.10;5.38;;;20.00;99.90;;;19.89;100.00;97126.59;5056325;28;20123;-36
2023/08/15 03:51:00;;;;;;;6.13;5.22;;;20.00;99.90;;;19.93;100.00;97140.59;5059280;28;20127;-36
2023/08/15 03:53:26;;;;;;;7.80;5.75;;;19.90;99.90;;;19.87;100.00;97136.56;5057973;28;20074;-35
2023/08/15 03:55:54;;;;;;;6.45;5.18;;;19.90;99.90;;;19.84;100.00;97144.84;5055734;28;20027;-36
2023/08/15 03:58:21;;;;;;;5.70;5.00;;;19.90;99.90;;;19.82;100.00;97144.09;5060244;28;20028;-36
2023/08/15 04:00:48;;;;;;;6.75;5.72;;;19.90;99.90;;;19.81;100.00;97150.41;5058783;28;20029;-36
2023/08/15 04:03:14;;;;;;;6.90;5.35;;;19.90;99.90;;;19.81;100.00;97151.28;5060245;28;20083;-36
2023/08/15 04:05:44;;;;;;;6.85;4.85;;;19.80;99.90;;;19.81;100.00;97155.78;5061798;28;20400;-36
2023/08/15 04:08:10;;;;;;;6.63;5.25;;;19.80;99.90;;;19.80;100.00;97143.38;5054877;28;20136;-36
2023/08/15 04:10:39;;;;;;;8.85;5.43;;;19.80;99.90;;;19.80;100.00;97152.25;5059471;28;20017;-36
2023/08/15 04:13:08;;;;;;;6.70;5.80;;;19.80;99.90;;;19.81;100.00;97150.41;5057590;28;20035;-36
2023/08/15 04:15:35;;;;;;;6.18;4.80;;;19.80;99.90;;;19.83;100.00;97157.38;5058751;28;20036;-36
2023/08/15 04:18:04;;;;;;;7.70;5.38;;;19.90;99.90;;;19.87;100.00;97166.00;5062745;28;20070;-36
2023/08/15 04:20:30;;;;;;;8.57;5.40;;;19.90;99.90;;;19.89;100.00;97173.91;5058038;28;20033;-36
2023/08/15 04:22:56;;;;;;;11.43;5.32;;;19.90;99.90;;;19.92;100.00;97169.19;5063202;28;20444;-36
2023/08/15 04:25:21;;;;;;;6.75;5.18;;;20.00;99.90;;;19.90;100.00;97162.22;5066544;28;20330;-36
2023/08/15 04:27:47;;;;;;;8.35;4.47;;;20.00;99.90;;;19.89;100.00;97169.41;5062286;28;20077;-36
2023/08/15 04:30:13;;;;;;;8.18;5.68;;;20.00;99.90;;;19.88;100.00;97181.06;5058214;28;20021;-36
2023/08/15 04:32:38;;;;;;;9.52;5.32;;;19.90;99.90;;;19.80;100.00;97188.88;5059244;28;20031;-36
2023/08/15 04:35:06;;;;;;;11.02;5.45;;;19.90;99.90;;;19.59;100.00;97169.94;5055342;28;20575;-37
2023/08/15 04:37:31;;;;;;;7.72;5.40;;;19.80;99.90;;;19.67;100.00;97201.44;5057222;28;20369;-36
2023/08/15 04:39:57;;;;;;;8.25;5.65;;;19.80;99.90;;;19.61;100.00;97200.09;5056250;28;20031;-36
2023/08/15 04:42:23;;;;;;;7.20;5.10;;;19.70;99.90;;;19.60;100.00;97201.94;5053930;28;20028;-36
2023/08/15 04:44:48;;;;;;;7.90;6.15;;;19.70;99.90;;;19.62;100.00;97209.84;5058068;28;20032;-37
2023/08/15 04:47:15;;;;;;;6.93;5.80;;;19.70;99.90;;;19.64;100.00;97203.38;5054033;28;20401;-36
2023/08/15 04:49:42;;;;;;;5.90;5.25;;;19.70;99.90;;;19.69;100.00;97211.06;5059094;28;20036;-36
2023/08/15 04:52:08;;;;;;;6.63;5.47;;;19.80;99.90;;;19.81;100.00;97209.28;5053139;28;20603;-36
2023/08/15 04:54:33;;;;;;;6.82;5.55;;;19.90;99.90;;;19.91;100.00;97204.94;5059645;28;20029;-36
2023/08/15 04:56:59;;;;;;;7.20;6.13;;;20.00;99.90;;;20.06;100.00;97210.91;5057031;28;20028;-36
2023/08/15 04:59:25;;;;;;;6.10;5.50;;;20.10;99.90;;;20.15;100.00;97204.84;5061110;28;20463;-36
2023/08/15 05:01:50;;;;;;;6.40;5.55;;;20.20;99.90;;;20.19;100.00;97190.25;5051148;28;20117;-36
2023/08/15 05:04:16;;;;;;;7.30;5.70;;;20.30;99.90;;;20.32;100.00;97210.69;5052285;28;20052;-36
2023/08/15 05:06:42;;;;;;;7.53;6.05;;;20.40;99.90;;;20.36;100.00;97202.25;5055580;28;20364;-36
2023/08/15 05:09:07;;;;;;;8.63;6.30;;;20.40;99.90;;;20.43;100.00;97207.16;5053682;28;20085;-36
2023/08/15 05:11:33;;;;;;;7.00;6.28;;;20.50;99.90;;;20.46;100.00;97209.56;5056491;28;20036;-36
2023/08/15 05:14:02;;;;;;;6.95;5.80;;;20.50;99.90;;;20.54;100.00;97213.31;5052487;28;20021;-36
2023/08/15 05:16:27;;;;;;;8.70;5.47;;;20.60;99.90;;;20.60;100.00;97211.97;5049285;28;20036;-36
2023/08/15 05:18:53;;;;;;;5.93;5.35;;;20.60;99.90;;;20.68;100.00;97217.63;5052159;28;20047;-36
2023/08/15 05:21:19;;;;;;;6.55;5.82;;;20.70;99.90;;;20.75;100.00;97212.63;5053001;28;20028;-36
2023/08/15 05:23:44;;;;;;;7.28;5.40;;;20.80;99.90;;;20.93;100.00;97227.19;5052716;28;20771;-36
2023/08/15 05:26:10;;;;;;;7.20;5.70;;;21.00;99.90;;;21.08;100.00;97227.75;5058133;28;20036;-36
2023/08/15 05:28:36;;;;;;;6.70;5.95;;;21.10;99.90;;;21.23;100.00;97222.97;5052488;28;20485;-36
2023/08/15 05:31:01;;;;;;;8.15;5.90;;;21.20;99.90;;;21.36;100.00;97222.78;5052045;28;20028;-36
2023/08/15 05:33:27;;;;;;;6.28;5.68;;;21.40;99.90;;;21.42;100.00;97216.06;5059411;28;20063;-36
2023/08/15 05:35:53;;;;;;;7.38;5.00;;;21.50;99.90;;;21.57;100.00;97222.84;5056057;28;20020;-36
2023/08/15 05:38:18;;;;;;;5.57;4.97;;;21.60;99.90;;;21.68;100.00;97216.59;5056681;28;20032;-36
2023/08/15 05:40:44;;;;;;;6.82;4.95;;;21.70;99.90;;;21.71;100.00;97206.44;5055755;28;20032;-36
2023/08/15 05:43:10;;;;;;;8.63;5.40;;;21.80;99.90;;;21.84;100.00;97226.84;5051505;28;20040;-36
2023/08/15 05:45:35;;;;;;;7.80;5.30;;;21.80;99.90;;;21.90;100.00;97232.53;5054831;28;20044;-36
2023/08/15 05:48:01;;;;;;;6.38;5.10;;;21.90;99.90;;;21.88;100.00;97215.72;5050735;28;20029;-36
2023/08/15 05:50:27;;;;;;;6.93;5.55;;;22.00;99.90;;;21.98;100.00;97228.34;5047824;28;20246;-36
2023/08/15 05:52:52;;;;;;;6.07;5.40;;;22.00;99.90;;;22.01;100.00;97236.97;5048459;28;20508;-36
2023/08/15 05:55:18;;;;;;;6.38;5.30;;;22.00;99.90;;;22.10;100.00;97238.03;5053901;28;20024;-36
2023/08/15 05:57:44;;;;;;;9.18;6.13;;;22.00;99.90;;;22.08;100.00;97250.75;5058022;28;20476;-36
2023/08/15 06:00:10;;;;;;;7.65;5.63;;;22.10;99.90;;;22.03;100.00;97247.59;5054316;28;20628;-36
2023/08/15 06:02:38;;;;;;;7.47;5.43;;;22.10;99.90;;;21.97;100.00;97257.03;5055151;28;20039;-36
2023/08/15 06:05:04;;;;;;;9.77;5.25;;;22.00;99.90;;;21.87;100.00;97265.00;5054788;28;21065;-36
2023/08/15 06:07:30;;;;;;;5.82;5.00;;;21.90;99.90;;;21.80;100.00;97271.88;5055525;28;20036;-36
2023/08/15 06:09:56;;;;;;;7.38;5.72;;;21.80;99.90;;;21.63;100.00;97259.06;5038836;28;20384;-36
2023/08/15 06:12:22;;;;;;;6.70;5.22;;;21.70;99.90;;;21.66;100.00;97270.38;5056357;28;20036;-36
2023/08/15 06:14:47;;;;;;;6.55;5.80;;;21.70;99.90;;;21.69;100.00;97272.78;5044047;28;20641;-36
2023/08/15 06:17:13;;;;;;;6.90;5.30;;;21.70;99.90;;;21.79;100.00;97272.88;5053347;28;20024;-36
2023/08/15 06:19:39;;;;;;;7.13;5.80;;;21.80;99.90;;;21.92;100.00;97288.78;5054506;28;20098;-36
2023/08/15 06:22:05;;;;;;;5.47;4.93;;;21.90;99.90;;;22.10;100.00;97284.53;5055621;28;20056;-36
2023/08/15 06:24:30;;;;;;;9.30;5.50;;;22.10;99.90;;;22.30;100.00;97284.66;5057605;28;20040;-36
2023/08/15 06:26:56;;;;;;;6.95;6.07;;;22.30;99.90;;;22.40;100.00;97276.69;5051701;28;20032;-36
2023/08/15 06:29:22;;;;;;;5.43;4.90;;;22.40;99.90;;;22.62;100.00;97286.41;5053304;28;20062;-36
2023/08/15 06:31:48;;;;;;;5.00;4.47;;;22.60;99.90;;;22.73;100.00;97294.34;5050883;28;20029;-36
2023/08/15 06:34:13;;;;;;;5.95;4.80;;;22.70;99.90;;;22.71;100.00;97292.81;5055852;28;20024;-37
2023/08/15 06:36:39;;;;;;;5.15;4.65;;;22.70;99.90;;;22.68;100.00;97293.91;5055075;28;20513;-36
2023/08/15 06:39:05;;;;;;;9.02;5.95;;;22.70;99.90;;;22.58;100.00;97298.41;5050305;28;20032;-36
2023/08/15 06:41:31;;;;;;;9.13;5.57;;;22.60;99.90;;;22.47;100.00;97289.44;5053468;28;20045;-36
2023/08/15 06:43:57;;;;;;;6.63;5.32;;;22.60;99.90;;;22.50;100.00;97301.75;5058242;28;20036;-36
2023/08/15 06:46:22;;;;;;;9.43;5.13;;;22.60;99.90;;;22.61;100.00;97300.81;5051119;28;20588;-37
2023/08/15 06:48:48;;;;;;;5.93;5.00;;;22.60;99.90;;;22.73;100.00;97318.53;5053750;28;20131;-36
2023/08/15 06:51:14;;;;;;;7.93;5.40;;;22.70;99.90;;;22.87;100.00;97320.03;5054786;28;20130;-36
2023/08/15 06:53:44;;;;;;;6.90;5.30;;;22.80;99.90;;;23.03;100.00;97311.44;5055363;28;20961;-36
2023/08/15 06:56:10;;;;;;;5.70;4.75;;;23.00;99.90;;;23.19;100.00;97317.19;5052478;28;20384;-36
2023/08/15 06:58:36;;;;;;;6.10;4.95;;;23.20;99.90;;;23.25;100.00;97313.09;5058678;28;20065;-36
2023/08/15 07:01:02;;;;;;;7.50;4.93;;;23.30;99.90;;;23.37;100.00;97312.00;5056129;28;20471;-36
2023/08/15 07:03:27;;;;;;;6.18;5.32;;;23.40;99.90;;;23.49;100.00;97323.50;5057169;28;20039;-36
2023/08/15 07:05:53;;;;;;;5.60;5.10;;;23.50;99.90;;;23.74;100.00;97334.69;5059184;28;20472;-36
2023/08/15 07:08:19;;;;;;;6.07;5.22;;;23.60;99.90;;;24.11;100.00;97332.16;5052948;28;20120;-36
2023/08/15 07:10:44;;;;;;;8.38;5.00;;;24.00;99.90;;;24.46;100.00;97335.22;5060155;28;20083;-36
2023/08/15 07:13:11;;;;;;;9.60;5.30;;;24.30;99.90;;;24.67;100.00;97326.97;5056824;28;20725;-36
2023/08/15 07:15:37;;;;;;;6.25;4.65;;;24.50;99.90;;;24.96;100.00;97322.34;5054471;28;20017;-36
2023/08/15 07:18:03;;;;;;;6.95;5.38;;;24.80;99.90;;;25.28;100.00;97322.91;5051759;28;20029;-36
2023/08/15 07:20:29;;;;;;;8.63;5.18;;;25.10;99.90;;;25.65;100.00;97325.50;5061168;28;20107;-36
2023/08/15 07:22:55;;;;;;;6.07;5.20;;;25.40;99.90;;;26.04;100.00;97330.63;5062540;28;20082;-36
2023/08/15 07:25:21;;;;;;;6.40;5.65;;;25.80;99.90;;;26.40;100.00;97335.97;5059723;28;20488;-36
2023/08/15 07:27:47;;;;;;;7.88;4.55;;;26.10;99.90;;;26.61;100.00;97340.19;5061129;28;20047;-36
2023/08/15 07:30:13;;;;;;;6.30;4.95;;;26.40;99.90;;;26.59;100.00;97350.28;5057017;28;20031;-37
2023/08/15 07:32:39;;;;;;;7.97;5.25;;;26.50;99.90;;;26.51;100.00;97345.69;5059669;28;20056;-36
2023/08/15 07:35:07;;;;;;;6.32;4.85;;;26.50;99.90;;;26.75;100.00;97346.88;5061203;28;20032;-36
2023/08/15 07:37:34;;;;;;;6.22;5.00;;;26.60;99.90;;;26.86;100.00;97341.19;5059812;28;20032;-36
2023/08/15 07:40:09;;;;;;;6.95;5.25;;;26.80;99.90;;;27.12;100.00;97332.19;5060412;28;20139;-37
2023/08/15 07:42:35;;;;;;;7.75;4.93;;;26.90;99.90;;;27.27;100.00;97337.88;5060038;28;20495;-37
2023/08/15 07:45:02;;;;;;;8.35;5.05;;;27.10;99.90;;;27.52;100.00;97347.75;5057925;28;20028;-37
2023/08/15 07:47:28;;;;;;;6.75;4.72;;;27.30;99.90;;;27.68;97.09;97340.69;5060747;28;20189;-36
2023/08/15 07:50:25;;;;;;;8.00;4.60;;;27.40;99.90;;;27.83;94.40;97336.31;5059794;28;20029;-36
2023/08/15 07:52:52;;;;;;;7.95;4.90;;;27.60;99.90;;;27.99;94.92;97339.06;5057993;28;20036;-37
2023/08/15 07:55:18;;;;;;;5.85;4.72;;;27.80;99.90;;;28.09;97.03;97338.06;5058714;28;20405;-37
2023/08/15 07:57:45;;;;;;;8.77;4.90;;;28.00;99.90;;;28.01;89.99;97330.75;5054413;28;20116;-36
2023/08/15 08:00:14;;;;;;;5.65;4.22;;;27.90;99.90;;;28.07;93.71;97321.97;5055770;28;20469;-36
2023/08/15 08:02:41;;;;;;;6.03;4.32;;;27.90;99.90;;;27.88;95.68;97322.25;5062573;28;20024;-36
2023/08/15 08:05:09;;;;;;;7.70;4.80;;;27.70;99.90;;;27.89;95.41;97332.94;5058986;28;20496;-36
2023/08/15 08:07:36;;;;;;;6.05;4.28;;;27.70;99.90;;;27.97;94.26;97335.69;5062827;28;20055;-36
2023/08/15 08:10:03;;;;;;;7.78;4.88;;;27.80;99.90;;;28.02;93.46;97334.34;5055694;28;20464;-37
2023/08/15 08:12:30;;;;;;;7.45;5.38;;;27.80;99.90;;;28.14;90.47;97335.72;5057806;28;20028;-37
2023/08/15 08:14:56;;;;;;;8.35;4.80;;;28.00;99.90;;;28.32;88.66;97340.97;5061232;28;20021;-37
2023/08/15 08:17:23;;;;;;;8.32;5.03;;;28.10;99.90;;;28.37;89.34;97338.56;5056875;28;20147;-36
2023/08/15 08:19:49;;;;;;;5.78;4.22;;;28.30;99.90;;;28.44;90.07;97330.59;5058885;28;20033;-37
2023/08/15 08:22:14;;;;;;;6.15;4.50;;;28.30;99.90;;;28.43;90.17;97320.78;5056524;28;20152;-36
2023/08/15 08:24:40;;;;;;;6.57;4.38;;;28.40;99.90;;;28.55;91.29;97323.00;5051730;28;20061;-37
2023/08/15 08:27:06;;;;;;;9.90;4.90;;;28.50;99.90;;;28.59;89.68;97323.50;5051926;28;20894;-36
2023/08/15 08:29:31;;;;;;;6.40;4.78;;;28.60;99.90;;;28.73;90.82;97330.06;5054606;28;20048;-37
2023/08/15 08:31:57;;;;;;;5.88;4.75;;;28.60;99.90;;;28.74;80.56;97327.19;5048754;28;20425;-37
2023/08/15 08:34:23;;;;;;;8.07;4.55;;;28.60;99.90;;;28.64;84.67;97328.38;5056970;28;20032;-37
2023/08/15 08:36:49;;;;;;;7.28;5.03;;;28.50;99.90;;;28.54;91.29;97328.59;5052125;28;20039;-37
2023/08/15 08:39:14;;;;;;;5.57;4.70;;;28.40;99.90;;;28.49;89.63;97328.22;5051959;28;20036;-36
2023/08/15 08:41:41;;;;;;;6.05;4.20;;;28.40;99.90;;;28.51;87.72;97327.00;5057328;28;20121;-37
2023/08/15 08:44:07;;;;;;;6.07;4.70;;;28.40;99.90;;;28.66;84.84;97335.34;5056363;28;20029;-37
2023/08/15 08:46:36;;;;;;;6.78;4.65;;;28.50;99.90;;;28.86;87.95;97337.69;5053662;28;20508;-36
2023/08/15 08:49:03;;;;;;;7.72;4.75;;;28.70;99.90;;;28.87;84.74;97321.19;5058032;28;20064;-37
2023/08/15 08:51:32;;;;;;;5.60;4.60;;;28.80;99.90;;;29.02;84.38;97340.34;5056700;28;20086;-37
2023/08/15 08:53:58;;;;;;;8.45;4.95;;;28.90;99.90;;;29.04;81.47;97340.19;5061307;28;20044;-37
2023/08/15 08:56:29;;;;;;;7.72;4.88;;;29.00;99.90;;;28.82;81.14;97344.47;5056338;28;20059;-37
2023/08/15 08:59:02;;;;;;;5.50;4.28;;;28.90;99.90;;;28.66;81.95;97334.47;5053167;28;20032;-36
2023/08/15 09:01:31;;;;;;;7.95;5.10;;;28.70;99.90;;;28.41;88.25;97337.22;5054734;28;20078;-37
2023/08/15 09:03:57;;;;;;;7.50;5.25;;;28.40;99.90;;;28.26;87.73;97337.03;5056699;28;20159;-36
2023/08/15 09:06:27;;;;;;;7.75;4.85;;;28.30;99.90;;;28.21;88.23;97341.28;5055209;28;20078;-36
2023/08/15 09:08:58;;;;;;;6.57;4.95;;;28.20;99.90;;;28.22;90.61;97341.13;5052524;28;20103;-36
2023/08/15 09:11:35;;;;;;;5.87;4.60;;;28.20;99.90;;;28.29;88.74;97346.72;5049583;28;20425;-36
2023/08/15 09:14:05;;;;;;;4.70;4.28;;;28.20;99.90;;;28.40;89.53;97340.94;5052543;28;20024;-36
2023/08/15 09:16:32;;;;;;;11.57;5.68;;;28.30;99.90;;;28.51;88.13;97337.03;5057718;28;20122;-37
2023/08/15 09:19:02;;;;;;;13.98;5.82;;;28.40;99.90;;;28.56;87.38;97342.81;5060287;28;20431;-36
2023/08/15 09:21:29;;;;;;;7.30;5.40;;;28.50;99.90;;;28.73;85.20;97351.75;5055197;28;20032;-37
2023/08/15 09:24:00;;;;;;;8.55;5.72;;;28.60;99.90;;;28.86;86.30;97349.38;5059404;28;20028;-37
2023/08/15 09:26:26;;;;;;;7.40;5.00;;;28.70;99.90;;;29.04;79.62;97343.72;5057032;28;20040;-36
2023/08/15 09:28:52;;;;;;;6.00;4.50;;;28.90;99.90;;;29.22;73.46;97356.25;5053739;28;20098;-36
2023/08/15 09:31:18;;;;;;;7.78;4.70;;;29.10;99.90;;;29.19;67.74;97356.59;5045409;28;20033;-37
2023/08/15 09:33:44;;;;;;;7.63;3.55;;;29.20;99.90;;;29.10;58.84;97353.03;5049395;28;20035;-37
2023/08/15 09:36:10;;;;;;;6.63;3.55;;;29.20;99.90;;;29.32;57.59;97356.88;5057978;28;20024;-36
2023/08/15 09:38:37;;;;;;;6.47;3.10;;;29.20;99.90;;;29.46;62.63;97353.41;5054111;28;20048;-36
2023/08/15 09:41:03;;;;;;;6.20;3.42;;;29.40;99.90;;;29.43;52.63;97361.94;5045259;28;20054;-37
2023/08/15 09:43:30;;;;;;;6.10;3.30;;;29.50;99.90;;;29.34;49.51;97359.41;5039966;28;20044;-37
2023/08/15 09:46:00;;;;;;;5.82;3.05;;;29.40;99.90;;;29.14;49.66;97357.09;5039216;28;20392;-36
2023/08/15 09:48:29;;;;;;;5.50;2.97;;;29.20;99.20;;;28.87;49.10;97339.34;5052741;28;20029;-36
2023/08/15 09:50:56;;;;;;;7.22;2.70;;;29.00;99.00;;;28.67;47.80;97353.31;5047911;28;20503;-36
2023/08/15 09:53:25;;;;;;;7.22;2.58;;;28.70;97.00;;;28.71;47.61;97348.38;5057145;28;20034;-36
2023/08/15 09:55:52;;;;;;;4.35;2.70;;;28.70;97.70;;;28.72;47.46;97356.34;5055106;28;20021;-36
2023/08/15 09:58:19;;;;;;;3.85;2.53;;;28.70;97.70;;;28.80;47.13;97346.50;5049814;28;20187;-36
2023/08/15 10:00:50;;;;;;;5.25;2.85;;;28.70;97.30;;;28.93;46.59;97346.81;5056386;28;20041;-36
2023/08/15 10:03:24;;;;;;;8.63;2.90;;;28.80;97.00;;;29.05;46.94;97342.69;5052025;28;20056;-38
2023/08/15 10:05:54;;;;;;;5.10;3.28;;;29.00;96.90;;;29.12;47.70;97343.69;5053319;28;20147;-37
2023/08/15 10:08:20;;;;;;;5.05;3.17;;;29.10;97.40;;;29.16;48.13;97348.81;5053727;28;20039;-38
2023/08/15 10:10:53;;;;;;;6.57;3.20;;;29.20;97.30;;;29.23;47.35;97352.50;5060335;28;20091;-38
2023/08/15 10:13:26;;;;;;;;;;;29.20;97.00;;;29.24;49.59;97362.34;5059287;28;20025;-38
2023/08/15 10:15:54;;;;;;;5.93;2.95;;;29.20;97.50;;;29.25;49.11;97367.63;5037774;28;20031;-38